createdAt,value
2017-10-03T00:00:35.043Z,1005.38
2017-10-03T00:01:15.619Z,1005.32
2017-10-03T00:01:56.219Z,1005.3
2017-10-03T00:02:36.758Z,1005.24
2017-10-03T00:03:17.344Z,1005.26
2017-10-03T00:03:57.893Z,1005.24
2017-10-03T00:04:38.622Z,1005.28
2017-10-03T00:05:19.284Z,1005.29
2017-10-03T00:05:59.933Z,1005.3
2017-10-03T00:06:40.592Z,1005.3
2017-10-03T00:07:21.262Z,1005.29
2017-10-03T00:08:01.829Z,1005.32
2017-10-03T00:08:42.448Z,1005.31
2017-10-03T00:09:23.161Z,1005.31
2017-10-03T00:10:03.781Z,1005.31
2017-10-03T00:10:44.412Z,1005.3
2017-10-03T00:11:24.989Z,1005.26
2017-10-03T00:12:05.596Z,1005.25
2017-10-03T00:12:46.198Z,1005.25
2017-10-03T00:13:26.815Z,1005.17
2017-10-03T00:14:07.525Z,1005.2
2017-10-03T00:14:48.065Z,1005.14
2017-10-03T00:15:28.644Z,1005.14
2017-10-03T00:16:09.226Z,1005.13
2017-10-03T00:16:49.837Z,1005.07
2017-10-03T00:17:30.422Z,1005.04
2017-10-03T00:18:10.978Z,1005.05
2017-10-03T00:18:51.547Z,1005.11
2017-10-03T00:19:32.129Z,1005.03
2017-10-03T00:20:12.776Z,1005.04
2017-10-03T00:20:53.349Z,1005.01
2017-10-03T00:21:33.943Z,1005.01
2017-10-03T00:22:14.535Z,1005.03
2017-10-03T00:22:55.145Z,1004.98
2017-10-03T00:23:35.701Z,1004.94
2017-10-03T00:24:16.284Z,1004.95
2017-10-03T00:24:56.851Z,1004.96
2017-10-03T00:25:37.447Z,1004.96
2017-10-03T00:26:18.074Z,1004.95
2017-10-03T00:26:58.724Z,1004.95
2017-10-03T00:27:39.293Z,1004.88
2017-10-03T00:28:19.948Z,1004.92
2017-10-03T00:29:00.495Z,1004.9
2017-10-03T00:29:41.067Z,1004.89
2017-10-03T00:30:21.658Z,1004.84
2017-10-03T00:31:02.250Z,1004.8
2017-10-03T00:31:42.855Z,1004.71
2017-10-03T00:32:23.419Z,1004.74
2017-10-03T00:33:04.012Z,1004.76
2017-10-03T00:33:44.595Z,1004.74
2017-10-03T00:34:25.184Z,1004.73
2017-10-03T00:35:05.761Z,1004.85
2017-10-03T00:35:46.366Z,1004.88
2017-10-03T00:36:26.987Z,1004.9
2017-10-03T00:37:07.550Z,1004.92
2017-10-03T00:37:48.117Z,1004.94
2017-10-03T00:38:28.713Z,1004.94
2017-10-03T00:39:09.297Z,1004.95
2017-10-03T00:39:49.881Z,1004.94
2017-10-03T00:40:30.516Z,1004.96
2017-10-03T00:41:11.129Z,1004.94
2017-10-03T00:41:51.725Z,1004.96
2017-10-03T00:42:32.323Z,1004.94
2017-10-03T00:43:12.887Z,1004.96
2017-10-03T00:43:53.469Z,1004.97
2017-10-03T00:44:34.113Z,1005
2017-10-03T00:45:14.665Z,1004.97
2017-10-03T00:45:58.156Z,1005
2017-10-03T00:46:38.745Z,1004.98
2017-10-03T00:47:19.355Z,1005
2017-10-03T00:47:59.946Z,1005.05
2017-10-03T00:48:40.523Z,1005.05
2017-10-03T00:49:21.127Z,1005.07
2017-10-03T00:50:01.695Z,1005.03
2017-10-03T00:50:42.309Z,1005.02
2017-10-03T00:51:23.046Z,1005.04
2017-10-03T00:52:03.504Z,1004.99
2017-10-03T00:52:44.099Z,1005.01
2017-10-03T00:53:24.720Z,1005.03
2017-10-03T00:54:05.310Z,1005.01
2017-10-03T00:54:45.866Z,1005.03
2017-10-03T00:55:26.481Z,1005.03
2017-10-03T00:56:07.212Z,1005.08
2017-10-03T00:56:47.781Z,1005.1
2017-10-03T00:57:28.443Z,1005.07
2017-10-03T00:58:09.016Z,1005.13
2017-10-03T00:58:49.584Z,1005.14
2017-10-03T00:59:30.319Z,1005.12
2017-10-03T01:00:10.954Z,1005.09
2017-10-03T01:00:51.645Z,1005.05
2017-10-03T01:01:32.252Z,1005.06
2017-10-03T01:02:12.919Z,1005
2017-10-03T01:02:53.523Z,1005.01
2017-10-03T01:03:34.146Z,1004.98
2017-10-03T01:04:14.772Z,1005.08
2017-10-03T01:04:55.366Z,1004.99
2017-10-03T01:05:35.974Z,1004.97
2017-10-03T01:06:16.565Z,1005
2017-10-03T01:06:57.169Z,1005
2017-10-03T01:07:37.819Z,1004.98
2017-10-03T01:08:18.419Z,1004.99
2017-10-03T01:08:59.007Z,1004.97
2017-10-03T01:09:39.566Z,1004.92
2017-10-03T01:10:20.138Z,1004.96
2017-10-03T01:11:00.776Z,1004.94
2017-10-03T01:11:41.406Z,1004.98
2017-10-03T01:12:21.961Z,1004.96
2017-10-03T01:13:02.572Z,1005.01
2017-10-03T01:13:43.208Z,1005.03
2017-10-03T01:14:23.783Z,1005.12
2017-10-03T01:15:04.337Z,1005.13
2017-10-03T01:15:44.950Z,1005.1
2017-10-03T01:16:25.507Z,1005.08
2017-10-03T01:17:06.118Z,1005.04
2017-10-03T01:17:46.768Z,1005.05
2017-10-03T01:18:27.417Z,1004.98
2017-10-03T01:19:08.008Z,1005.03
2017-10-03T01:19:48.599Z,1005.01
2017-10-03T01:20:29.222Z,1005.01
2017-10-03T01:21:09.845Z,1005.08
2017-10-03T01:21:50.521Z,1005.09
2017-10-03T01:22:31.091Z,1005.06
2017-10-03T01:23:11.657Z,1005.13
2017-10-03T01:23:52.242Z,1005.09
2017-10-03T01:24:32.845Z,1005.08
2017-10-03T01:25:13.449Z,1005.09
2017-10-03T01:25:54.034Z,1005.08
2017-10-03T01:26:34.646Z,1005.1
2017-10-03T01:27:15.268Z,1005.11
2017-10-03T01:27:55.838Z,1005.04
2017-10-03T01:28:36.471Z,1005.08
2017-10-03T01:29:17.057Z,1005.1
2017-10-03T01:29:57.606Z,1005.07
2017-10-03T01:30:38.194Z,1005.08
2017-10-03T01:31:18.798Z,1005.07
2017-10-03T01:31:59.449Z,1005.1
2017-10-03T01:32:39.994Z,1005.02
2017-10-03T01:33:20.629Z,1005.02
2017-10-03T01:34:01.197Z,1005.01
2017-10-03T01:34:41.787Z,1004.98
2017-10-03T01:35:22.397Z,1004.96
2017-10-03T01:36:03.019Z,1004.94
2017-10-03T01:36:43.666Z,1004.93
2017-10-03T01:37:24.202Z,1004.94
2017-10-03T01:38:04.786Z,1004.94
2017-10-03T01:38:45.376Z,1004.93
2017-10-03T01:39:25.963Z,1004.92
2017-10-03T01:40:06.596Z,1004.91
2017-10-03T01:40:47.154Z,1004.91
2017-10-03T01:41:27.756Z,1004.91
2017-10-03T01:42:08.350Z,1004.95
2017-10-03T01:42:48.998Z,1004.96
2017-10-03T01:43:29.520Z,1005.04
2017-10-03T01:44:10.158Z,1005.03
2017-10-03T01:44:50.745Z,1005.01
2017-10-03T01:45:31.323Z,1005.02
2017-10-03T01:46:11.930Z,1005.07
2017-10-03T01:46:52.572Z,1005.04
2017-10-03T01:47:33.144Z,1005.04
2017-10-03T01:48:13.734Z,1005.05
2017-10-03T01:48:54.315Z,1005.06
2017-10-03T01:49:34.918Z,1005.04
2017-10-03T01:50:15.509Z,1005.07
2017-10-03T01:50:56.094Z,1005.05
2017-10-03T01:51:36.706Z,1005.07
2017-10-03T01:52:17.330Z,1005.08
2017-10-03T01:52:57.889Z,1005.08
2017-10-03T01:53:38.531Z,1005.07
2017-10-03T01:54:19.160Z,1005.09
2017-10-03T01:54:59.719Z,1005.06
2017-10-03T01:55:40.307Z,1005.03
2017-10-03T01:56:20.902Z,1005.05
2017-10-03T01:57:01.535Z,1005.07
2017-10-03T01:57:42.130Z,1005.08
2017-10-03T01:58:22.818Z,1005.08
2017-10-03T01:59:03.375Z,1005.09
2017-10-03T01:59:43.976Z,1005.13
2017-10-03T02:00:24.621Z,1005.15
2017-10-03T02:01:05.281Z,1005.13
2017-10-03T02:01:45.908Z,1005.15
2017-10-03T02:02:26.480Z,1005.15
2017-10-03T02:03:07.044Z,1005.13
2017-10-03T02:03:47.661Z,1005.16
2017-10-03T02:04:28.259Z,1005.12
2017-10-03T02:05:08.841Z,1005.14
2017-10-03T02:05:49.417Z,1005.16
2017-10-03T02:06:30.014Z,1005.11
2017-10-03T02:07:10.604Z,1005.14
2017-10-03T02:07:51.192Z,1005.17
2017-10-03T02:08:31.815Z,1005.13
2017-10-03T02:09:12.496Z,1005.13
2017-10-03T02:09:53.069Z,1005.12
2017-10-03T02:10:33.701Z,1005.09
2017-10-03T02:11:14.284Z,1005.03
2017-10-03T02:11:54.911Z,1005.07
2017-10-03T02:12:35.556Z,1005.02
2017-10-03T02:13:16.188Z,1005
2017-10-03T02:13:56.791Z,1005.02
2017-10-03T02:14:37.398Z,1004.98
2017-10-03T02:15:18.078Z,1004.99
2017-10-03T02:15:58.609Z,1004.91
2017-10-03T02:16:39.230Z,1004.92
2017-10-03T02:17:19.835Z,1004.95
2017-10-03T02:18:00.498Z,1004.93
2017-10-03T02:18:41.021Z,1004.95
2017-10-03T02:19:21.657Z,1004.98
2017-10-03T02:20:02.239Z,1005.01
2017-10-03T02:20:42.858Z,1004.95
2017-10-03T02:21:23.427Z,1005
2017-10-03T02:22:04.072Z,1004.99
2017-10-03T02:22:44.656Z,1005
2017-10-03T02:23:25.318Z,1004.99
2017-10-03T02:24:05.887Z,1005.05
2017-10-03T02:24:46.489Z,1005.01
2017-10-03T02:25:27.080Z,1005.01
2017-10-03T02:26:07.704Z,1005.03
2017-10-03T02:26:48.317Z,1005.02
2017-10-03T02:27:28.933Z,1004.99
2017-10-03T02:28:09.510Z,1005
2017-10-03T02:28:50.112Z,1005
2017-10-03T02:29:30.750Z,1004.98
2017-10-03T02:30:11.315Z,1004.98
2017-10-03T02:30:51.958Z,1004.96
2017-10-03T02:31:32.608Z,1004.97
2017-10-03T02:32:13.162Z,1004.94
2017-10-03T02:32:53.750Z,1004.98
2017-10-03T02:33:34.673Z,1004.97
2017-10-03T02:34:15.367Z,1005.02
2017-10-03T02:34:56.001Z,1005.06
2017-10-03T02:35:36.572Z,1005.05
2017-10-03T02:36:17.178Z,1005.09
2017-10-03T02:36:57.768Z,1005.06
2017-10-03T02:37:38.399Z,1005.06
2017-10-03T02:38:19.088Z,1005.06
2017-10-03T02:38:59.690Z,1005.08
2017-10-03T02:39:40.290Z,1005.01
2017-10-03T02:40:20.892Z,1005.07
2017-10-03T02:41:01.521Z,1005.05
2017-10-03T02:41:42.097Z,1005.05
2017-10-03T02:42:22.662Z,1005.02
2017-10-03T02:43:03.244Z,1004.99
2017-10-03T02:43:43.899Z,1005.02
2017-10-03T02:44:24.480Z,1004.99
2017-10-03T02:45:05.063Z,1004.97
2017-10-03T02:45:45.642Z,1004.97
2017-10-03T02:46:26.237Z,1004.92
2017-10-03T02:47:06.810Z,1004.95
2017-10-03T02:47:47.417Z,1004.96
2017-10-03T02:48:27.976Z,1004.9
2017-10-03T02:49:08.535Z,1004.91
2017-10-03T02:49:49.110Z,1004.91
2017-10-03T02:50:29.686Z,1004.89
2017-10-03T02:51:10.252Z,1004.87
2017-10-03T02:51:50.831Z,1004.82
2017-10-03T02:52:31.418Z,1004.78
2017-10-03T02:53:12.019Z,1004.79
2017-10-03T02:53:52.647Z,1004.8
2017-10-03T02:54:33.234Z,1004.79
2017-10-03T02:55:13.818Z,1004.78
2017-10-03T02:55:54.397Z,1004.79
2017-10-03T02:56:34.953Z,1004.73
2017-10-03T02:57:15.547Z,1004.73
2017-10-03T02:57:56.122Z,1004.75
2017-10-03T02:58:36.698Z,1004.74
2017-10-03T02:59:17.316Z,1004.74
2017-10-03T02:59:57.901Z,1004.79
2017-10-03T03:00:38.499Z,1004.78
2017-10-03T03:01:19.086Z,1004.78
2017-10-03T03:01:59.690Z,1004.75
2017-10-03T03:02:40.261Z,1004.77
2017-10-03T03:03:20.849Z,1004.76
2017-10-03T03:04:01.417Z,1004.72
2017-10-03T03:04:42.004Z,1004.73
2017-10-03T03:05:22.570Z,1004.7
2017-10-03T03:06:03.148Z,1004.7
2017-10-03T03:06:43.723Z,1004.72
2017-10-03T03:07:24.352Z,1004.71
2017-10-03T03:08:04.916Z,1004.66
2017-10-03T03:08:45.512Z,1004.65
2017-10-03T03:09:26.098Z,1004.65
2017-10-03T03:10:06.754Z,1004.65
2017-10-03T03:10:47.368Z,1004.7
2017-10-03T03:11:27.955Z,1004.69
2017-10-03T03:12:08.623Z,1004.64
2017-10-03T03:12:49.190Z,1004.66
2017-10-03T03:13:29.761Z,1004.65
2017-10-03T03:14:10.415Z,1004.64
2017-10-03T03:14:51.012Z,1004.58
2017-10-03T03:15:31.617Z,1004.62
2017-10-03T03:16:12.181Z,1004.63
2017-10-03T03:16:52.776Z,1004.62
2017-10-03T03:17:33.358Z,1004.66
2017-10-03T03:18:14.021Z,1004.7
2017-10-03T03:18:54.599Z,1004.69
2017-10-03T03:19:35.186Z,1004.68
2017-10-03T03:20:15.813Z,1004.71
2017-10-03T03:20:56.404Z,1004.72
2017-10-03T03:21:36.981Z,1004.72
2017-10-03T03:22:17.612Z,1004.71
2017-10-03T03:22:58.220Z,1004.67
2017-10-03T03:23:38.831Z,1004.68
2017-10-03T03:24:19.408Z,1004.66
2017-10-03T03:25:00.057Z,1004.68
2017-10-03T03:25:40.638Z,1004.63
2017-10-03T03:26:21.278Z,1004.66
2017-10-03T03:27:01.859Z,1004.68
2017-10-03T03:27:42.415Z,1004.66
2017-10-03T03:28:23.028Z,1004.7
2017-10-03T03:29:03.622Z,1004.7
2017-10-03T03:29:44.204Z,1004.68
2017-10-03T03:30:24.815Z,1004.66
2017-10-03T03:31:05.565Z,1004.69
2017-10-03T03:31:46.112Z,1004.68
2017-10-03T03:32:26.738Z,1004.65
2017-10-03T03:33:07.337Z,1004.66
2017-10-03T03:33:47.932Z,1004.66
2017-10-03T03:34:28.536Z,1004.64
2017-10-03T03:35:09.134Z,1004.62
2017-10-03T03:35:49.833Z,1004.65
2017-10-03T03:36:30.395Z,1004.65
2017-10-03T03:37:10.971Z,1004.63
2017-10-03T03:37:51.558Z,1004.69
2017-10-03T03:38:32.141Z,1004.72
2017-10-03T03:39:12.751Z,1004.67
2017-10-03T03:39:53.343Z,1004.72
2017-10-03T03:40:33.962Z,1004.72
2017-10-03T03:41:14.546Z,1004.69
2017-10-03T03:41:55.161Z,1004.7
2017-10-03T03:42:35.758Z,1004.67
2017-10-03T03:43:16.364Z,1004.66
2017-10-03T03:43:57.034Z,1004.69
2017-10-03T03:44:37.607Z,1004.72
2017-10-03T03:45:18.166Z,1004.75
2017-10-03T03:45:58.776Z,1004.71
2017-10-03T03:46:39.341Z,1004.73
2017-10-03T03:47:19.931Z,1004.67
2017-10-03T03:48:00.528Z,1004.65
2017-10-03T03:48:41.077Z,1004.62
2017-10-03T03:49:21.636Z,1004.58
2017-10-03T03:50:02.201Z,1004.58
2017-10-03T03:50:42.764Z,1004.64
2017-10-03T03:51:23.327Z,1004.65
2017-10-03T03:52:03.906Z,1004.71
2017-10-03T03:52:44.473Z,1004.7
2017-10-03T03:53:25.034Z,1004.64
2017-10-03T03:54:05.592Z,1004.67
2017-10-03T03:54:46.167Z,1004.67
2017-10-03T03:55:26.728Z,1004.68
2017-10-03T03:56:07.287Z,1004.63
2017-10-03T03:56:47.895Z,1004.67
2017-10-03T03:57:28.493Z,1004.65
2017-10-03T03:58:09.071Z,1004.64
2017-10-03T03:58:49.646Z,1004.66
2017-10-03T03:59:30.210Z,1004.59
2017-10-03T04:00:10.804Z,1004.57
2017-10-03T04:00:51.405Z,1004.52
2017-10-03T04:01:31.959Z,1004.53
2017-10-03T04:02:12.536Z,1004.52
2017-10-03T04:02:53.099Z,1004.49
2017-10-03T04:03:33.674Z,1004.51
2017-10-03T04:04:14.263Z,1004.52
2017-10-03T04:04:54.855Z,1004.5
2017-10-03T04:05:35.451Z,1004.46
2017-10-03T04:06:16.032Z,1004.51
2017-10-03T04:06:56.610Z,1004.44
2017-10-03T04:07:37.181Z,1004.48
2017-10-03T04:08:17.765Z,1004.47
2017-10-03T04:08:58.333Z,1004.46
2017-10-03T04:09:38.932Z,1004.47
2017-10-03T04:10:19.500Z,1004.51
2017-10-03T04:11:00.071Z,1004.53
2017-10-03T04:11:40.644Z,1004.53
2017-10-03T04:12:21.194Z,1004.53
2017-10-03T04:13:01.778Z,1004.55
2017-10-03T04:13:42.348Z,1004.53
2017-10-03T04:14:22.948Z,1004.55
2017-10-03T04:15:03.545Z,1004.55
2017-10-03T04:15:44.153Z,1004.61
2017-10-03T04:16:24.721Z,1004.55
2017-10-03T04:17:05.300Z,1004.5
2017-10-03T04:17:45.920Z,1004.49
2017-10-03T04:18:26.480Z,1004.41
2017-10-03T04:19:07.063Z,1004.4
2017-10-03T04:19:47.631Z,1004.39
2017-10-03T04:20:28.268Z,1004.39
2017-10-03T04:21:08.837Z,1004.39
2017-10-03T04:21:49.439Z,1004.38
2017-10-03T04:22:30.042Z,1004.39
2017-10-03T04:23:10.605Z,1004.4
2017-10-03T04:23:51.177Z,1004.37
2017-10-03T04:24:31.876Z,1004.36
2017-10-03T04:25:12.456Z,1004.38
2017-10-03T04:25:53.047Z,1004.41
2017-10-03T04:26:33.633Z,1004.43
2017-10-03T04:27:14.238Z,1004.47
2017-10-03T04:27:54.806Z,1004.54
2017-10-03T04:28:35.476Z,1004.53
2017-10-03T04:29:16.084Z,1004.54
2017-10-03T04:29:56.652Z,1004.63
2017-10-03T04:30:37.340Z,1004.54
2017-10-03T04:31:17.887Z,1004.57
2017-10-03T04:31:58.448Z,1004.6
2017-10-03T04:32:39.090Z,1004.6
2017-10-03T04:33:19.648Z,1004.59
2017-10-03T04:34:00.223Z,1004.58
2017-10-03T04:34:40.917Z,1004.56
2017-10-03T04:35:21.532Z,1004.54
2017-10-03T04:36:02.185Z,1004.52
2017-10-03T04:36:42.968Z,1004.49
2017-10-03T04:37:23.536Z,1004.51
2017-10-03T04:38:04.252Z,1004.5
2017-10-03T04:38:44.856Z,1004.58
2017-10-03T04:39:25.465Z,1004.55
2017-10-03T04:40:06.060Z,1004.54
2017-10-03T04:40:46.649Z,1004.54
2017-10-03T04:41:27.289Z,1004.59
2017-10-03T04:42:07.868Z,1004.57
2017-10-03T04:42:48.488Z,1004.58
2017-10-03T04:43:29.074Z,1004.56
2017-10-03T04:44:09.665Z,1004.56
2017-10-03T04:44:50.300Z,1004.52
2017-10-03T04:45:30.895Z,1004.55
2017-10-03T04:46:11.478Z,1004.53
2017-10-03T04:46:52.095Z,1004.51
2017-10-03T04:47:32.769Z,1004.53
2017-10-03T04:48:13.329Z,1004.49
2017-10-03T04:48:54.049Z,1004.52
2017-10-03T04:49:34.625Z,1004.47
2017-10-03T04:50:15.189Z,1004.46
2017-10-03T04:50:55.755Z,1004.45
2017-10-03T04:51:36.311Z,1004.44
2017-10-03T04:52:16.894Z,1004.45
2017-10-03T04:52:57.451Z,1004.4
2017-10-03T04:53:38.034Z,1004.42
2017-10-03T04:54:18.685Z,1004.39
2017-10-03T04:55:00.929Z,1004.43
2017-10-03T04:55:41.619Z,1004.47
2017-10-03T04:56:25.321Z,1004.49
2017-10-03T04:57:15.219Z,1004.48
2017-10-03T04:58:02.208Z,1004.49
2017-10-03T04:58:52.012Z,1004.5
2017-10-03T04:59:42.089Z,1004.48
2017-10-03T05:00:32.551Z,1004.5
2017-10-03T05:01:14.325Z,1004.46
2017-10-03T05:01:56.717Z,1004.51
2017-10-03T05:02:39.616Z,1004.49
2017-10-03T05:04:43.926Z,1004.52
2017-10-03T05:05:26.743Z,1004.53
2017-10-03T05:06:08.953Z,1004.56
2017-10-03T05:06:55.248Z,1004.56
2017-10-03T05:07:38.108Z,1004.52
2017-10-03T05:08:19.301Z,1004.55
2017-10-03T05:09:02.341Z,1004.48
2017-10-03T05:09:47.948Z,1004.48
2017-10-03T05:10:31.816Z,1004.45
2017-10-03T05:11:14.657Z,1004.48
2017-10-03T05:11:59.159Z,1004.54
2017-10-03T05:12:41.759Z,1004.58
2017-10-03T05:13:25.696Z,1004.58
2017-10-03T05:14:10.721Z,1004.59
2017-10-03T05:14:57.242Z,1004.57
2017-10-03T05:17:19.575Z,1004.52
2017-10-03T05:18:01.763Z,1004.52
2017-10-03T05:18:45.671Z,1004.52
2017-10-03T05:19:29.416Z,1004.58
2017-10-03T05:20:14.981Z,1004.63
2017-10-03T05:20:57.752Z,1004.61
2017-10-03T05:21:44.786Z,1004.65
2017-10-03T05:22:26.526Z,1004.67
2017-10-03T05:23:08.345Z,1004.68
2017-10-03T05:23:52.942Z,1004.66
2017-10-03T05:24:38.946Z,1004.61
2017-10-03T05:25:26.644Z,1004.5
2017-10-03T05:26:12.242Z,1004.47
2017-10-03T05:26:59.050Z,1004.48
2017-10-03T05:27:48.079Z,1004.52
2017-10-03T05:28:39.509Z,1004.57
2017-10-03T05:29:25.574Z,1004.59
2017-10-03T05:30:07.795Z,1004.61
2017-10-03T05:30:49.366Z,1004.64
2017-10-03T05:31:32.553Z,1004.66
2017-10-03T05:32:15.571Z,1004.59
2017-10-03T05:32:56.884Z,1004.6
2017-10-03T05:33:37.468Z,1004.55
2017-10-03T05:34:18.509Z,1004.54
2017-10-03T05:35:01.683Z,1004.59
2017-10-03T05:35:52.615Z,1004.6
2017-10-03T05:36:34.995Z,1004.68
2017-10-03T05:37:15.557Z,1004.67
2017-10-03T05:37:56.125Z,1004.71
2017-10-03T05:38:36.683Z,1004.78
2017-10-03T05:39:17.257Z,1004.75
2017-10-03T05:39:57.860Z,1004.78
2017-10-03T05:40:38.478Z,1004.76
2017-10-03T05:41:19.071Z,1004.79
2017-10-03T05:41:59.684Z,1004.78
2017-10-03T05:42:40.269Z,1004.79
2017-10-03T05:43:20.844Z,1004.77
2017-10-03T05:44:01.467Z,1004.79
2017-10-03T05:44:42.024Z,1004.67
2017-10-03T05:45:22.576Z,1004.66
2017-10-03T05:46:03.153Z,1004.6
2017-10-03T05:46:43.735Z,1004.63
2017-10-03T05:47:24.302Z,1004.65
2017-10-03T05:48:04.867Z,1004.69
2017-10-03T05:48:45.436Z,1004.65
2017-10-03T05:49:26.011Z,1004.73
2017-10-03T05:50:06.600Z,1004.73
2017-10-03T05:50:47.197Z,1004.7
2017-10-03T05:51:27.765Z,1004.73
2017-10-03T05:52:08.345Z,1004.79
2017-10-03T05:52:48.939Z,1004.76
2017-10-03T05:53:29.567Z,1004.79
2017-10-03T05:54:10.153Z,1004.78
2017-10-03T05:54:50.727Z,1004.82
2017-10-03T05:55:31.305Z,1004.79
2017-10-03T05:56:11.868Z,1004.85
2017-10-03T05:56:52.484Z,1004.83
2017-10-03T05:57:33.068Z,1004.84
2017-10-03T05:58:13.644Z,1004.9
2017-10-03T05:58:54.217Z,1004.9
2017-10-03T05:59:34.784Z,1004.93
2017-10-03T06:00:15.392Z,1004.93
2017-10-03T06:00:55.985Z,1004.92
2017-10-03T06:01:36.555Z,1004.91
2017-10-03T06:02:17.140Z,1004.93
2017-10-03T06:02:57.806Z,1004.91
2017-10-03T06:03:38.396Z,1004.92
2017-10-03T06:04:18.993Z,1004.93
2017-10-03T06:04:59.599Z,1004.92
2017-10-03T06:05:40.149Z,1004.97
2017-10-03T06:06:20.746Z,1005
2017-10-03T06:07:01.332Z,1005.01
2017-10-03T06:07:41.903Z,1005.07
2017-10-03T06:08:22.557Z,1005.11
2017-10-03T06:09:03.162Z,1005.11
2017-10-03T06:09:43.762Z,1005.15
2017-10-03T06:10:24.356Z,1005.13
2017-10-03T06:11:04.941Z,1005.15
2017-10-03T06:11:45.643Z,1005.09
2017-10-03T06:12:26.262Z,1005.11
2017-10-03T06:13:07.484Z,1005.1
2017-10-03T06:13:48.073Z,1005.05
2017-10-03T06:14:28.666Z,1005.07
2017-10-03T06:15:09.242Z,1005.07
2017-10-03T06:15:49.833Z,1005.08
2017-10-03T06:16:30.433Z,1005.1
2017-10-03T06:17:10.997Z,1005.17
2017-10-03T06:17:51.551Z,1005.18
2017-10-03T06:18:32.126Z,1005.16
2017-10-03T06:19:12.694Z,1005.21
2017-10-03T06:19:53.284Z,1005.21
2017-10-03T06:20:33.843Z,1005.16
2017-10-03T06:21:14.413Z,1005.16
2017-10-03T06:21:55.050Z,1005.13
2017-10-03T06:22:35.677Z,1005.13
2017-10-03T06:23:16.252Z,1005.15
2017-10-03T06:23:56.808Z,1005.13
2017-10-03T06:24:37.374Z,1005.19
2017-10-03T06:25:17.992Z,1005.15
2017-10-03T06:25:58.554Z,1005.19
2017-10-03T06:26:39.175Z,1005.13
2017-10-03T06:27:19.766Z,1005.15
2017-10-03T06:28:00.348Z,1005.15
2017-10-03T06:28:40.930Z,1005.15
2017-10-03T06:29:21.557Z,1005.1
2017-10-03T06:30:02.137Z,1005.11
2017-10-03T06:30:42.724Z,1005.1
2017-10-03T06:31:23.309Z,1005.16
2017-10-03T06:32:03.911Z,1005.15
2017-10-03T06:32:44.477Z,1005.13
2017-10-03T06:33:25.056Z,1005.18
2017-10-03T06:34:05.664Z,1005.16
2017-10-03T06:34:46.246Z,1005.17
2017-10-03T06:35:26.812Z,1005.16
2017-10-03T06:36:07.364Z,1005.18
2017-10-03T06:36:47.924Z,1005.14
2017-10-03T06:37:28.505Z,1005.15
2017-10-03T06:38:09.065Z,1005.23
2017-10-03T06:38:49.637Z,1005.22
2017-10-03T06:39:30.223Z,1005.26
2017-10-03T06:40:10.777Z,1005.39
2017-10-03T06:40:51.333Z,1005.42
2017-10-03T06:41:31.898Z,1005.39
2017-10-03T06:42:12.480Z,1005.42
2017-10-03T06:42:53.072Z,1005.44
2017-10-03T06:43:33.635Z,1005.43
2017-10-03T06:44:14.192Z,1005.44
2017-10-03T06:44:54.750Z,1005.4
2017-10-03T06:45:35.323Z,1005.4
2017-10-03T06:46:15.888Z,1005.42
2017-10-03T06:46:56.463Z,1005.45
2017-10-03T06:47:37.057Z,1005.48
2017-10-03T06:48:17.732Z,1005.43
2017-10-03T06:48:58.389Z,1005.48
2017-10-03T06:49:38.949Z,1005.48
2017-10-03T06:50:19.594Z,1005.5
2017-10-03T06:51:00.204Z,1005.52
2017-10-03T06:51:40.802Z,1005.53
2017-10-03T06:52:21.358Z,1005.55
2017-10-03T06:53:01.964Z,1005.58
2017-10-03T06:53:42.538Z,1005.56
2017-10-03T06:54:23.120Z,1005.57
2017-10-03T06:55:03.699Z,1005.59
2017-10-03T06:55:44.291Z,1005.59
2017-10-03T06:56:24.881Z,1005.63
2017-10-03T06:57:05.447Z,1005.58
2017-10-03T06:57:46.036Z,1005.6
2017-10-03T06:58:26.592Z,1005.59
2017-10-03T06:59:07.184Z,1005.58
2017-10-03T06:59:47.767Z,1005.6
2017-10-03T07:00:28.371Z,1005.55
2017-10-03T07:01:08.932Z,1005.58
2017-10-03T07:01:49.535Z,1005.58
2017-10-03T07:02:30.106Z,1005.62
2017-10-03T07:03:10.667Z,1005.64
2017-10-03T07:03:51.239Z,1005.63
2017-10-03T07:04:31.796Z,1005.64
2017-10-03T07:05:12.392Z,1005.63
2017-10-03T07:05:52.964Z,1005.6
2017-10-03T07:06:33.633Z,1005.6
2017-10-03T07:07:14.194Z,1005.6
2017-10-03T07:07:54.772Z,1005.64
2017-10-03T07:08:35.397Z,1005.67
2017-10-03T07:09:15.976Z,1005.67
2017-10-03T07:09:56.571Z,1005.68
2017-10-03T07:10:37.156Z,1005.72
2017-10-03T07:11:17.734Z,1005.73
2017-10-03T07:11:58.296Z,1005.72
2017-10-03T07:12:38.860Z,1005.72
2017-10-03T07:13:19.456Z,1005.75
2017-10-03T07:14:00.054Z,1005.74
2017-10-03T07:14:40.637Z,1005.78
2017-10-03T07:15:21.248Z,1005.79
2017-10-03T07:16:01.891Z,1005.84
2017-10-03T07:16:42.466Z,1005.77
2017-10-03T07:17:23.062Z,1005.87
2017-10-03T07:18:03.605Z,1005.8
2017-10-03T07:18:44.181Z,1005.84
2017-10-03T07:19:24.748Z,1005.99
2017-10-03T07:20:05.370Z,1005.92
2017-10-03T07:20:45.915Z,1005.83
2017-10-03T07:21:26.493Z,1005.86
2017-10-03T07:22:07.063Z,1005.81
2017-10-03T07:22:47.675Z,1005.79
2017-10-03T07:23:28.279Z,1005.82
2017-10-03T07:24:08.908Z,1005.81
2017-10-03T07:24:49.529Z,1005.78
2017-10-03T07:25:30.155Z,1005.85
2017-10-03T07:26:10.751Z,1005.83
2017-10-03T07:26:51.313Z,1005.78
2017-10-03T07:27:31.883Z,1005.79
2017-10-03T07:28:12.533Z,1005.77
2017-10-03T07:28:53.189Z,1005.72
2017-10-03T07:29:33.762Z,1005.7
2017-10-03T07:30:14.345Z,1005.69
2017-10-03T07:30:54.902Z,1005.69
2017-10-03T07:31:35.485Z,1005.7
2017-10-03T07:32:16.094Z,1005.73
2017-10-03T07:32:56.659Z,1005.82
2017-10-03T07:33:37.235Z,1005.8
2017-10-03T07:34:17.827Z,1005.69
2017-10-03T07:34:58.408Z,1005.69
2017-10-03T07:35:38.981Z,1005.69
2017-10-03T07:36:19.563Z,1005.74
2017-10-03T07:37:00.131Z,1005.66
2017-10-03T07:37:40.742Z,1005.67
2017-10-03T07:38:21.366Z,1005.68
2017-10-03T07:39:01.945Z,1005.73
2017-10-03T07:39:42.568Z,1005.72
2017-10-03T07:40:23.131Z,1005.68
2017-10-03T07:41:03.700Z,1005.69
2017-10-03T07:41:44.258Z,1005.69
2017-10-03T07:42:24.883Z,1005.73
2017-10-03T07:43:05.442Z,1005.72
2017-10-03T07:43:46.022Z,1005.71
2017-10-03T07:44:26.599Z,1005.79
2017-10-03T07:45:07.199Z,1005.94
2017-10-03T07:45:47.846Z,1005.78
2017-10-03T07:46:28.428Z,1005.79
2017-10-03T07:47:08.996Z,1005.84
2017-10-03T07:47:49.568Z,1005.81
2017-10-03T07:48:30.163Z,1005.87
2017-10-03T07:49:10.744Z,1005.8
2017-10-03T07:49:51.350Z,1005.81
2017-10-03T07:50:31.924Z,1005.87
2017-10-03T07:51:12.488Z,1005.81
2017-10-03T07:51:53.052Z,1005.88
2017-10-03T07:52:33.628Z,1005.9
2017-10-03T07:53:14.192Z,1005.91
2017-10-03T07:53:54.750Z,1005.93
2017-10-03T07:54:35.321Z,1005.93
2017-10-03T07:55:15.909Z,1005.96
2017-10-03T07:55:56.484Z,1005.97
2017-10-03T07:56:37.081Z,1006.04
2017-10-03T07:57:17.666Z,1006.02
2017-10-03T07:57:58.253Z,1005.99
2017-10-03T07:58:38.838Z,1006.01
2017-10-03T07:59:19.421Z,1006.05
2017-10-03T07:59:59.974Z,1006.08
2017-10-03T08:00:40.532Z,1006.06
2017-10-03T08:01:21.110Z,1006.06
2017-10-03T08:02:01.673Z,1006.07
2017-10-03T08:02:42.254Z,1006.1
2017-10-03T08:03:22.816Z,1006.08
2017-10-03T08:04:03.379Z,1006.15
2017-10-03T08:04:43.953Z,1006.15
2017-10-03T08:05:24.515Z,1006.13
2017-10-03T08:06:05.128Z,1006.14
2017-10-03T08:06:45.706Z,1006.15
2017-10-03T08:07:26.292Z,1006.21
2017-10-03T08:08:06.859Z,1006.17
2017-10-03T08:08:47.423Z,1006.14
2017-10-03T08:09:27.993Z,1006.17
2017-10-03T08:10:08.552Z,1006.15
2017-10-03T08:10:49.164Z,1006.12
2017-10-03T08:11:29.759Z,1006.12
2017-10-03T08:12:10.339Z,1006.11
2017-10-03T08:12:51.269Z,1006.08
2017-10-03T08:13:31.963Z,1006.12
2017-10-03T08:14:12.550Z,1006.09
2017-10-03T08:14:53.275Z,1006.16
2017-10-03T08:15:33.853Z,1006.13
2017-10-03T08:16:14.445Z,1006.12
2017-10-03T08:16:55.457Z,1006.14
2017-10-03T08:17:36.042Z,1006.11
2017-10-03T08:18:16.618Z,1006.13
2017-10-03T08:18:57.176Z,1006.14
2017-10-03T08:19:37.781Z,1006.14